sensor_id;sensor_type;location;lat;lon;timestamp;temperature;humidity
13436;DHT22;6790;49.520;8.504;2024-02-14T00:01:54;5.40;99.90
13436;DHT22;6790;49.520;8.504;2024-02-14T00:04:20;5.30;99.90
13436;DHT22;6790;49.520;8.504;2024-02-14T00:06:46;5.20;99.90
13436;DHT22;6790;49.520;8.504;2024-02-14T00:09:12;5.30;99.90
13436;DHT22;6790;49.520;8.504;2024-02-14T00:11:38;5.40;99.90
13436;DHT22;6790;49.520;8.504;2024-02-14T00:14:04;5.40;99.90
13436;DHT22;6790;49.520;8.504;2024-02-14T00:16:30;5.50;99.90
13436;DHT22;6790;49.520;8.504;2024-02-14T00:18:56;5.60;99.90
13436;DHT22;6790;49.520;8.504;2024-02-14T00:21:22;5.70;99.90
13436;DHT22;6790;49.520;8.504;2024-02-14T00:23:49;5.80;99.90
13436;DHT22;6790;49.520;8.504;2024-02-14T00:26:16;5.80;99.90
13436;DHT22;6790;49.520;8.504;2024-02-14T00:28:41;5.90;99.90
13436;DHT22;6790;49.520;8.504;2024-02-14T00:31:07;5.90;99.90
13436;DHT22;6790;49.520;8.504;2024-02-14T00:33:33;5.90;99.90
13436;DHT22;6790;49.520;8.504;2024-02-14T00:35:59;5.90;99.90
13436;DHT22;6790;49.520;8.504;2024-02-14T00:38:24;5.90;99.90
13436;DHT22;6790;49.520;8.504;2024-02-14T00:40:50;5.90;99.90
13436;DHT22;6790;49.520;8.504;2024-02-14T00:43:16;5.90;99.90
13436;DHT22;6790;49.520;8.504;2024-02-14T00:45:42;5.90;99.90
13436;DHT22;6790;49.520;8.504;2024-02-14T00:48:07;5.90;99.90
13436;DHT22;6790;49.520;8.504;2024-02-14T00:50:33;5.90;99.90
13436;DHT22;6790;49.520;8.504;2024-02-14T00:52:59;5.90;99.90
13436;DHT22;6790;49.520;8.504;2024-02-14T00:55:25;5.90;99.90
13436;DHT22;6790;49.520;8.504;2024-02-14T00:57:51;5.80;99.90
13436;DHT22;6790;49.520;8.504;2024-02-14T01:00:17;5.80;99.90
13436;DHT22;6790;49.520;8.504;2024-02-14T01:02:43;5.80;99.90
13436;DHT22;6790;49.520;8.504;2024-02-14T01:05:09;5.80;99.90
13436;DHT22;6790;49.520;8.504;2024-02-14T01:07:36;5.80;99.90
13436;DHT22;6790;49.520;8.504;2024-02-14T01:10:02;5.80;99.90
13436;DHT22;6790;49.520;8.504;2024-02-14T01:12:28;5.80;99.90
13436;DHT22;6790;49.520;8.504;2024-02-14T01:14:57;5.80;99.90
13436;DHT22;6790;49.520;8.504;2024-02-14T01:17:23;5.80;99.90
13436;DHT22;6790;49.520;8.504;2024-02-14T01:19:49;5.80;99.90
13436;DHT22;6790;49.520;8.504;2024-02-14T01:22:15;5.80;99.90
13436;DHT22;6790;49.520;8.504;2024-02-14T01:24:42;5.80;99.90
13436;DHT22;6790;49.520;8.504;2024-02-14T01:27:08;5.80;99.90
13436;DHT22;6790;49.520;8.504;2024-02-14T01:29:34;5.80;99.90
13436;DHT22;6790;49.520;8.504;2024-02-14T01:32:00;5.80;99.90
13436;DHT22;6790;49.520;8.504;2024-02-14T01:34:26;5.80;99.90
13436;DHT22;6790;49.520;8.504;2024-02-14T01:36:53;5.80;99.90
13436;DHT22;6790;49.520;8.504;2024-02-14T01:39:20;5.80;99.90
13436;DHT22;6790;49.520;8.504;2024-02-14T01:41:47;5.90;99.90
13436;DHT22;6790;49.520;8.504;2024-02-14T01:44:16;5.90;99.90
13436;DHT22;6790;49.520;8.504;2024-02-14T01:46:44;5.90;99.90
13436;DHT22;6790;49.520;8.504;2024-02-14T01:49:11;5.90;99.90
13436;DHT22;6790;49.520;8.504;2024-02-14T01:51:38;5.90;99.90
13436;DHT22;6790;49.520;8.504;2024-02-14T01:54:06;6.00;99.90
13436;DHT22;6790;49.520;8.504;2024-02-14T01:56:33;5.90;99.90
13436;DHT22;6790;49.520;8.504;2024-02-14T01:58:59;5.90;99.90
13436;DHT22;6790;49.520;8.504;2024-02-14T02:01:26;5.90;99.90
13436;DHT22;6790;49.520;8.504;2024-02-14T02:03:52;6.00;99.90
13436;DHT22;6790;49.520;8.504;2024-02-14T02:06:18;6.00;99.90
13436;DHT22;6790;49.520;8.504;2024-02-14T02:08:44;5.90;99.90
13436;DHT22;6790;49.520;8.504;2024-02-14T02:11:10;5.90;99.90
13436;DHT22;6790;49.520;8.504;2024-02-14T02:13:35;5.90;99.90
13436;DHT22;6790;49.520;8.504;2024-02-14T02:16:05;5.80;99.90
13436;DHT22;6790;49.520;8.504;2024-02-14T02:18:34;5.80;99.90
13436;DHT22;6790;49.520;8.504;2024-02-14T02:21:00;5.70;99.90
13436;DHT22;6790;49.520;8.504;2024-02-14T02:23:29;5.70;99.90
13436;DHT22;6790;49.520;8.504;2024-02-14T02:25:56;5.60;99.90
13436;DHT22;6790;49.520;8.504;2024-02-14T02:28:22;5.50;99.90
13436;DHT22;6790;49.520;8.504;2024-02-14T02:30:47;5.50;99.90
13436;DHT22;6790;49.520;8.504;2024-02-14T02:33:13;5.50;99.90
13436;DHT22;6790;49.520;8.504;2024-02-14T02:35:41;5.60;99.90
13436;DHT22;6790;49.520;8.504;2024-02-14T02:38:09;5.60;99.90
13436;DHT22;6790;49.520;8.504;2024-02-14T02:40:35;5.60;99.90
13436;DHT22;6790;49.520;8.504;2024-02-14T02:43:00;5.70;99.90
13436;DHT22;6790;49.520;8.504;2024-02-14T02:45:26;5.70;99.90
13436;DHT22;6790;49.520;8.504;2024-02-14T02:47:52;5.70;99.90
13436;DHT22;6790;49.520;8.504;2024-02-14T02:50:18;5.70;99.90
13436;DHT22;6790;49.520;8.504;2024-02-14T02:52:45;5.70;99.90
13436;DHT22;6790;49.520;8.504;2024-02-14T02:55:10;5.80;99.90
13436;DHT22;6790;49.520;8.504;2024-02-14T02:57:36;5.90;99.90
13436;DHT22;6790;49.520;8.504;2024-02-14T03:00:06;5.90;99.90
13436;DHT22;6790;49.520;8.504;2024-02-14T03:02:33;5.90;99.90
13436;DHT22;6790;49.520;8.504;2024-02-14T03:04:59;5.90;99.90
13436;DHT22;6790;49.520;8.504;2024-02-14T03:07:25;6.00;99.90
13436;DHT22;6790;49.520;8.504;2024-02-14T03:09:52;6.10;99.90
13436;DHT22;6790;49.520;8.504;2024-02-14T03:12:17;6.20;99.90
13436;DHT22;6790;49.520;8.504;2024-02-14T03:14:44;6.20;99.90
13436;DHT22;6790;49.520;8.504;2024-02-14T03:17:10;6.20;99.90
13436;DHT22;6790;49.520;8.504;2024-02-14T03:19:36;6.30;99.90
13436;DHT22;6790;49.520;8.504;2024-02-14T03:22:04;6.30;99.90
13436;DHT22;6790;49.520;8.504;2024-02-14T03:24:34;6.40;99.90
13436;DHT22;6790;49.520;8.504;2024-02-14T03:27:02;6.50;99.90
13436;DHT22;6790;49.520;8.504;2024-02-14T03:29:29;6.50;99.90
13436;DHT22;6790;49.520;8.504;2024-02-14T03:31:55;6.60;99.90
13436;DHT22;6790;49.520;8.504;2024-02-14T03:34:24;6.60;99.90
13436;DHT22;6790;49.520;8.504;2024-02-14T03:36:50;6.60;99.90
13436;DHT22;6790;49.520;8.504;2024-02-14T03:39:16;6.60;99.90
13436;DHT22;6790;49.520;8.504;2024-02-14T03:41:42;6.60;99.90
13436;DHT22;6790;49.520;8.504;2024-02-14T03:44:08;6.60;99.90
13436;DHT22;6790;49.520;8.504;2024-02-14T03:46:34;6.60;99.90
13436;DHT22;6790;49.520;8.504;2024-02-14T03:49:00;6.60;99.90
13436;DHT22;6790;49.520;8.504;2024-02-14T03:51:26;6.60;99.90
13436;DHT22;6790;49.520;8.504;2024-02-14T03:53:52;6.70;99.90
13436;DHT22;6790;49.520;8.504;2024-02-14T03:56:18;6.70;99.90
13436;DHT22;6790;49.520;8.504;2024-02-14T03:58:44;6.70;99.90
13436;DHT22;6790;49.520;8.504;2024-02-14T04:01:09;6.70;99.90
13436;DHT22;6790;49.520;8.504;2024-02-14T04:03:35;6.70;99.90
13436;DHT22;6790;49.520;8.504;2024-02-14T04:06:01;6.70;99.90
13436;DHT22;6790;49.520;8.504;2024-02-14T04:08:27;6.70;99.90
13436;DHT22;6790;49.520;8.504;2024-02-14T04:10:52;6.70;99.90
13436;DHT22;6790;49.520;8.504;2024-02-14T04:13:20;6.70;99.90
13436;DHT22;6790;49.520;8.504;2024-02-14T04:15:46;6.70;99.90
13436;DHT22;6790;49.520;8.504;2024-02-14T04:18:13;6.80;99.90
13436;DHT22;6790;49.520;8.504;2024-02-14T04:20:40;6.80;99.90
13436;DHT22;6790;49.520;8.504;2024-02-14T04:23:06;6.80;99.90
13436;DHT22;6790;49.520;8.504;2024-02-14T04:25:33;6.80;99.90
13436;DHT22;6790;49.520;8.504;2024-02-14T04:27:59;6.80;99.90
13436;DHT22;6790;49.520;8.504;2024-02-14T04:30:25;6.80;99.90
13436;DHT22;6790;49.520;8.504;2024-02-14T04:32:51;6.80;99.90
13436;DHT22;6790;49.520;8.504;2024-02-14T04:35:20;6.80;99.90
13436;DHT22;6790;49.520;8.504;2024-02-14T04:37:46;6.80;99.90
13436;DHT22;6790;49.520;8.504;2024-02-14T04:40:13;6.80;99.90
13436;DHT22;6790;49.520;8.504;2024-02-14T04:42:40;6.80;99.90
13436;DHT22;6790;49.520;8.504;2024-02-14T04:45:09;6.80;99.90
13436;DHT22;6790;49.520;8.504;2024-02-14T04:47:35;6.80;99.90
13436;DHT22;6790;49.520;8.504;2024-02-14T04:50:01;6.80;99.90
13436;DHT22;6790;49.520;8.504;2024-02-14T04:52:29;6.80;99.90
13436;DHT22;6790;49.520;8.504;2024-02-14T04:54:55;6.80;99.90
13436;DHT22;6790;49.520;8.504;2024-02-14T04:57:22;6.90;99.90
13436;DHT22;6790;49.520;8.504;2024-02-14T04:59:47;6.90;99.90
13436;DHT22;6790;49.520;8.504;2024-02-14T05:02:13;6.80;99.90
13436;DHT22;6790;49.520;8.504;2024-02-14T05:04:39;6.80;99.90
13436;DHT22;6790;49.520;8.504;2024-02-14T05:07:05;6.80;99.90
13436;DHT22;6790;49.520;8.504;2024-02-14T05:09:30;6.80;99.90
13436;DHT22;6790;49.520;8.504;2024-02-14T05:11:56;6.80;99.90
13436;DHT22;6790;49.520;8.504;2024-02-14T05:14:22;6.80;99.90
13436;DHT22;6790;49.520;8.504;2024-02-14T05:16:49;6.90;99.90
13436;DHT22;6790;49.520;8.504;2024-02-14T05:19:15;6.80;99.90
13436;DHT22;6790;49.520;8.504;2024-02-14T05:21:40;6.80;99.90
13436;DHT22;6790;49.520;8.504;2024-02-14T05:24:06;6.80;99.90
13436;DHT22;6790;49.520;8.504;2024-02-14T05:26:33;6.80;99.90
13436;DHT22;6790;49.520;8.504;2024-02-14T05:28:59;6.80;99.90
13436;DHT22;6790;49.520;8.504;2024-02-14T05:31:28;6.90;99.90
13436;DHT22;6790;49.520;8.504;2024-02-14T05:34:08;6.90;99.90
13436;DHT22;6790;49.520;8.504;2024-02-14T05:36:33;6.90;99.90
13436;DHT22;6790;49.520;8.504;2024-02-14T05:38:59;7.00;99.90
13436;DHT22;6790;49.520;8.504;2024-02-14T05:41:25;6.90;99.90
13436;DHT22;6790;49.520;8.504;2024-02-14T05:43:51;6.90;99.90
13436;DHT22;6790;49.520;8.504;2024-02-14T05:46:16;6.90;99.90
13436;DHT22;6790;49.520;8.504;2024-02-14T05:48:42;6.90;99.90
13436;DHT22;6790;49.520;8.504;2024-02-14T05:51:08;6.90;99.90
13436;DHT22;6790;49.520;8.504;2024-02-14T05:53:33;6.90;99.90
13436;DHT22;6790;49.520;8.504;2024-02-14T05:55:59;7.00;99.90
13436;DHT22;6790;49.520;8.504;2024-02-14T05:58:25;7.00;99.90
13436;DHT22;6790;49.520;8.504;2024-02-14T06:00:52;7.10;99.90
13436;DHT22;6790;49.520;8.504;2024-02-14T06:03:18;7.10;99.90
13436;DHT22;6790;49.520;8.504;2024-02-14T06:05:44;7.10;99.90
13436;DHT22;6790;49.520;8.504;2024-02-14T06:08:09;7.10;99.90
13436;DHT22;6790;49.520;8.504;2024-02-14T06:10:35;7.20;99.90
13436;DHT22;6790;49.520;8.504;2024-02-14T06:13:01;7.20;99.90
13436;DHT22;6790;49.520;8.504;2024-02-14T06:15:26;7.20;99.90
13436;DHT22;6790;49.520;8.504;2024-02-14T06:17:52;7.30;99.90
13436;DHT22;6790;49.520;8.504;2024-02-14T06:20:17;7.30;99.90
13436;DHT22;6790;49.520;8.504;2024-02-14T06:22:43;7.40;99.90
13436;DHT22;6790;49.520;8.504;2024-02-14T06:25:09;7.50;99.90
13436;DHT22;6790;49.520;8.504;2024-02-14T06:27:35;7.50;99.90
13436;DHT22;6790;49.520;8.504;2024-02-14T06:30:00;7.50;99.90
13436;DHT22;6790;49.520;8.504;2024-02-14T06:32:26;7.60;99.90
13436;DHT22;6790;49.520;8.504;2024-02-14T06:34:52;7.50;99.90
13436;DHT22;6790;49.520;8.504;2024-02-14T06:37:17;7.60;99.90
13436;DHT22;6790;49.520;8.504;2024-02-14T06:39:43;7.60;99.90
13436;DHT22;6790;49.520;8.504;2024-02-14T06:42:09;7.60;99.90
13436;DHT22;6790;49.520;8.504;2024-02-14T06:44:34;7.60;99.90
13436;DHT22;6790;49.520;8.504;2024-02-14T06:47:00;7.60;99.90
13436;DHT22;6790;49.520;8.504;2024-02-14T06:49:26;7.60;99.90
13436;DHT22;6790;49.520;8.504;2024-02-14T06:51:51;7.70;99.90
13436;DHT22;6790;49.520;8.504;2024-02-14T06:54:17;7.70;99.90
13436;DHT22;6790;49.520;8.504;2024-02-14T06:56:45;7.70;99.90
13436;DHT22;6790;49.520;8.504;2024-02-14T06:59:10;7.70;99.90
13436;DHT22;6790;49.520;8.504;2024-02-14T07:01:36;7.80;99.90
13436;DHT22;6790;49.520;8.504;2024-02-14T07:04:02;7.90;99.90
13436;DHT22;6790;49.520;8.504;2024-02-14T07:06:28;7.90;99.90
13436;DHT22;6790;49.520;8.504;2024-02-14T07:08:54;7.90;99.90
13436;DHT22;6790;49.520;8.504;2024-02-14T07:11:20;7.90;99.90
13436;DHT22;6790;49.520;8.504;2024-02-14T07:13:45;8.00;99.90
13436;DHT22;6790;49.520;8.504;2024-02-14T07:16:11;8.00;99.90
13436;DHT22;6790;49.520;8.504;2024-02-14T07:18:37;8.00;99.90
13436;DHT22;6790;49.520;8.504;2024-02-14T07:21:03;8.10;99.90
13436;DHT22;6790;49.520;8.504;2024-02-14T07:23:31;8.10;99.90
13436;DHT22;6790;49.520;8.504;2024-02-14T07:25:58;8.20;99.90
13436;DHT22;6790;49.520;8.504;2024-02-14T07:28:24;8.20;99.90
13436;DHT22;6790;49.520;8.504;2024-02-14T07:30:49;8.20;99.90
13436;DHT22;6790;49.520;8.504;2024-02-14T07:33:15;8.30;99.90
13436;DHT22;6790;49.520;8.504;2024-02-14T07:35:41;8.40;99.90
13436;DHT22;6790;49.520;8.504;2024-02-14T07:38:08;8.40;99.90
13436;DHT22;6790;49.520;8.504;2024-02-14T07:40:34;8.50;99.90
13436;DHT22;6790;49.520;8.504;2024-02-14T07:43:00;8.60;99.90
13436;DHT22;6790;49.520;8.504;2024-02-14T07:45:26;8.60;99.90
13436;DHT22;6790;49.520;8.504;2024-02-14T07:47:52;8.50;99.90
13436;DHT22;6790;49.520;8.504;2024-02-14T07:50:18;8.40;99.90
13436;DHT22;6790;49.520;8.504;2024-02-14T07:52:44;8.40;99.90
13436;DHT22;6790;49.520;8.504;2024-02-14T07:55:11;8.30;99.90
13436;DHT22;6790;49.520;8.504;2024-02-14T07:57:41;8.30;99.90
13436;DHT22;6790;49.520;8.504;2024-02-14T08:00:07;8.30;99.90
13436;DHT22;6790;49.520;8.504;2024-02-14T08:02:34;8.30;99.90
13436;DHT22;6790;49.520;8.504;2024-02-14T08:05:00;8.30;99.90
13436;DHT22;6790;49.520;8.504;2024-02-14T08:07:26;8.30;99.90
13436;DHT22;6790;49.520;8.504;2024-02-14T08:09:52;8.30;99.90
13436;DHT22;6790;49.520;8.504;2024-02-14T08:12:18;8.40;99.90
13436;DHT22;6790;49.520;8.504;2024-02-14T08:14:44;8.50;99.90
13436;DHT22;6790;49.520;8.504;2024-02-14T08:17:10;8.60;99.90
13436;DHT22;6790;49.520;8.504;2024-02-14T08:19:36;8.60;99.90
13436;DHT22;6790;49.520;8.504;2024-02-14T08:22:01;8.70;99.90
13436;DHT22;6790;49.520;8.504;2024-02-14T08:24:28;8.80;99.90
13436;DHT22;6790;49.520;8.504;2024-02-14T08:26:54;8.90;99.90
13436;DHT22;6790;49.520;8.504;2024-02-14T08:29:20;8.90;99.90
13436;DHT22;6790;49.520;8.504;2024-02-14T08:31:46;9.00;99.90
13436;DHT22;6790;49.520;8.504;2024-02-14T08:34:13;9.10;99.90
13436;DHT22;6790;49.520;8.504;2024-02-14T08:36:39;9.10;99.90
13436;DHT22;6790;49.520;8.504;2024-02-14T08:39:07;9.20;99.90
13436;DHT22;6790;49.520;8.504;2024-02-14T08:41:33;9.30;99.90
13436;DHT22;6790;49.520;8.504;2024-02-14T08:43:59;9.40;99.90
13436;DHT22;6790;49.520;8.504;2024-02-14T08:46:24;9.40;99.90
13436;DHT22;6790;49.520;8.504;2024-02-14T08:48:51;9.50;99.90
13436;DHT22;6790;49.520;8.504;2024-02-14T08:51:17;9.50;99.90
13436;DHT22;6790;49.520;8.504;2024-02-14T08:53:45;9.50;99.90
13436;DHT22;6790;49.520;8.504;2024-02-14T08:56:11;9.50;99.90
13436;DHT22;6790;49.520;8.504;2024-02-14T08:58:37;9.50;99.90
13436;DHT22;6790;49.520;8.504;2024-02-14T09:01:04;9.50;99.90
13436;DHT22;6790;49.520;8.504;2024-02-14T09:03:31;9.50;99.90
13436;DHT22;6790;49.520;8.504;2024-02-14T09:05:57;9.50;99.90
13436;DHT22;6790;49.520;8.504;2024-02-14T09:08:23;9.50;99.90
13436;DHT22;6790;49.520;8.504;2024-02-14T09:10:50;9.50;99.90
13436;DHT22;6790;49.520;8.504;2024-02-14T09:13:16;9.60;99.90
13436;DHT22;6790;49.520;8.504;2024-02-14T09:15:43;9.60;99.90
13436;DHT22;6790;49.520;8.504;2024-02-14T09:18:08;9.80;99.90
13436;DHT22;6790;49.520;8.504;2024-02-14T09:20:34;9.90;99.90
13436;DHT22;6790;49.520;8.504;2024-02-14T09:23:01;9.90;99.90
13436;DHT22;6790;49.520;8.504;2024-02-14T09:25:26;10.20;99.90
13436;DHT22;6790;49.520;8.504;2024-02-14T09:27:52;10.30;99.90
13436;DHT22;6790;49.520;8.504;2024-02-14T09:30:18;10.30;99.90
13436;DHT22;6790;49.520;8.504;2024-02-14T09:32:44;10.30;99.90
13436;DHT22;6790;49.520;8.504;2024-02-14T09:35:10;10.40;99.90
13436;DHT22;6790;49.520;8.504;2024-02-14T09:37:36;10.30;99.90
13436;DHT22;6790;49.520;8.504;2024-02-14T09:40:05;10.30;99.90
13436;DHT22;6790;49.520;8.504;2024-02-14T09:42:38;10.30;99.90
13436;DHT22;6790;49.520;8.504;2024-02-14T09:45:14;10.50;99.90
13436;DHT22;6790;49.520;8.504;2024-02-14T09:47:40;10.70;99.90
13436;DHT22;6790;49.520;8.504;2024-02-14T09:50:07;10.80;99.90
13436;DHT22;6790;49.520;8.504;2024-02-14T09:52:33;10.80;99.90
13436;DHT22;6790;49.520;8.504;2024-02-14T09:55:01;10.70;99.90
13436;DHT22;6790;49.520;8.504;2024-02-14T09:57:29;10.60;99.90
13436;DHT22;6790;49.520;8.504;2024-02-14T09:59:56;10.60;99.90
13436;DHT22;6790;49.520;8.504;2024-02-14T10:02:22;10.50;99.90
13436;DHT22;6790;49.520;8.504;2024-02-14T10:08:33;10.50;99.90
13436;DHT22;6790;49.520;8.504;2024-02-14T10:10:59;10.40;99.90
13436;DHT22;6790;49.520;8.504;2024-02-14T10:13:28;10.50;99.90
13436;DHT22;6790;49.520;8.504;2024-02-14T10:15:55;10.50;99.90
13436;DHT22;6790;49.520;8.504;2024-02-14T10:18:21;10.60;99.90
13436;DHT22;6790;49.520;8.504;2024-02-14T10:20:55;10.50;99.90
13436;DHT22;6790;49.520;8.504;2024-02-14T10:23:21;10.40;99.90
13436;DHT22;6790;49.520;8.504;2024-02-14T10:25:55;10.40;99.90
13436;DHT22;6790;49.520;8.504;2024-02-14T10:28:22;10.40;99.90
13436;DHT22;6790;49.520;8.504;2024-02-14T10:30:48;10.40;99.90
13436;DHT22;6790;49.520;8.504;2024-02-14T10:33:17;10.50;99.90
13436;DHT22;6790;49.520;8.504;2024-02-14T10:35:44;10.50;99.90
13436;DHT22;6790;49.520;8.504;2024-02-14T10:38:11;10.60;99.90
13436;DHT22;6790;49.520;8.504;2024-02-14T10:40:37;10.70;99.90
13436;DHT22;6790;49.520;8.504;2024-02-14T10:43:08;10.80;99.90
13436;DHT22;6790;49.520;8.504;2024-02-14T10:45:37;10.80;99.90
13436;DHT22;6790;49.520;8.504;2024-02-14T10:48:05;10.80;99.90
13436;DHT22;6790;49.520;8.504;2024-02-14T10:50:33;10.90;99.90
13436;DHT22;6790;49.520;8.504;2024-02-14T10:53:04;11.00;99.90
13436;DHT22;6790;49.520;8.504;2024-02-14T10:55:33;11.20;99.90
13436;DHT22;6790;49.520;8.504;2024-02-14T10:57:59;11.40;99.90
13436;DHT22;6790;49.520;8.504;2024-02-14T11:00:25;11.20;99.90
13436;DHT22;6790;49.520;8.504;2024-02-14T11:02:52;11.30;99.90
13436;DHT22;6790;49.520;8.504;2024-02-14T11:05:19;11.40;99.90
13436;DHT22;6790;49.520;8.504;2024-02-14T11:07:49;11.40;99.90
13436;DHT22;6790;49.520;8.504;2024-02-14T11:10:19;11.50;99.90
13436;DHT22;6790;49.520;8.504;2024-02-14T11:12:47;11.50;99.90
13436;DHT22;6790;49.520;8.504;2024-02-14T11:15:20;11.50;99.90
13436;DHT22;6790;49.520;8.504;2024-02-14T11:17:48;11.50;99.90
13436;DHT22;6790;49.520;8.504;2024-02-14T11:20:30;11.40;99.90
13436;DHT22;6790;49.520;8.504;2024-02-14T11:23:04;11.40;99.90
13436;DHT22;6790;49.520;8.504;2024-02-14T11:25:33;11.30;99.90
13436;DHT22;6790;49.520;8.504;2024-02-14T11:28:18;11.20;99.90
13436;DHT22;6790;49.520;8.504;2024-02-14T11:30:49;11.10;99.90
13436;DHT22;6790;49.520;8.504;2024-02-14T11:33:20;11.10;99.90
13436;DHT22;6790;49.520;8.504;2024-02-14T11:35:50;11.00;99.90
13436;DHT22;6790;49.520;8.504;2024-02-14T11:38:17;11.00;99.90
13436;DHT22;6790;49.520;8.504;2024-02-14T11:40:43;11.20;99.90
13436;DHT22;6790;49.520;8.504;2024-02-14T11:43:13;11.20;99.90
13436;DHT22;6790;49.520;8.504;2024-02-14T11:45:41;11.20;99.90
13436;DHT22;6790;49.520;8.504;2024-02-14T11:48:18;11.20;99.90
13436;DHT22;6790;49.520;8.504;2024-02-14T11:50:45;11.20;99.90
13436;DHT22;6790;49.520;8.504;2024-02-14T11:53:12;11.40;99.90
13436;DHT22;6790;49.520;8.504;2024-02-14T11:55:39;11.50;99.90
13436;DHT22;6790;49.520;8.504;2024-02-14T11:58:14;11.50;99.90
13436;DHT22;6790;49.520;8.504;2024-02-14T12:00:42;11.50;99.90
13436;DHT22;6790;49.520;8.504;2024-02-14T12:03:18;11.40;99.90
13436;DHT22;6790;49.520;8.504;2024-02-14T12:05:49;11.60;99.90
13436;DHT22;6790;49.520;8.504;2024-02-14T12:08:16;11.70;99.90
13436;DHT22;6790;49.520;8.504;2024-02-14T12:10:44;11.90;99.90
13436;DHT22;6790;49.520;8.504;2024-02-14T12:13:15;11.80;99.90
13436;DHT22;6790;49.520;8.504;2024-02-14T12:15:45;11.90;99.90
13436;DHT22;6790;49.520;8.504;2024-02-14T12:18:12;12.00;99.90
13436;DHT22;6790;49.520;8.504;2024-02-14T12:20:39;12.00;99.90
13436;DHT22;6790;49.520;8.504;2024-02-14T12:23:05;12.10;99.90
13436;DHT22;6790;49.520;8.504;2024-02-14T12:25:31;12.40;99.90
13436;DHT22;6790;49.520;8.504;2024-02-14T12:27:58;12.80;99.90
13436;DHT22;6790;49.520;8.504;2024-02-14T12:30:42;12.70;99.90
13436;DHT22;6790;49.520;8.504;2024-02-14T12:33:15;12.90;99.90
13436;DHT22;6790;49.520;8.504;2024-02-14T12:35:46;13.00;99.90
13436;DHT22;6790;49.520;8.504;2024-02-14T12:38:13;13.10;99.90
13436;DHT22;6790;49.520;8.504;2024-02-14T12:40:40;13.20;99.90
13436;DHT22;6790;49.520;8.504;2024-02-14T12:43:07;13.30;99.90
13436;DHT22;6790;49.520;8.504;2024-02-14T12:45:34;13.20;99.90
13436;DHT22;6790;49.520;8.504;2024-02-14T12:48:00;13.10;99.90
13436;DHT22;6790;49.520;8.504;2024-02-14T12:50:26;13.10;99.90
13436;DHT22;6790;49.520;8.504;2024-02-14T12:52:52;13.10;99.90
13436;DHT22;6790;49.520;8.504;2024-02-14T12:55:18;12.90;99.90
13436;DHT22;6790;49.520;8.504;2024-02-14T12:57:45;12.80;99.90
13436;DHT22;6790;49.520;8.504;2024-02-14T13:00:11;12.90;99.90
13436;DHT22;6790;49.520;8.504;2024-02-14T13:02:37;12.90;99.90
13436;DHT22;6790;49.520;8.504;2024-02-14T13:05:06;12.70;99.90
13436;DHT22;6790;49.520;8.504;2024-02-14T13:07:33;12.60;99.90
13436;DHT22;6790;49.520;8.504;2024-02-14T13:09:59;12.40;99.90
13436;DHT22;6790;49.520;8.504;2024-02-14T13:12:26;12.40;99.90
13436;DHT22;6790;49.520;8.504;2024-02-14T13:14:52;12.20;99.90
13436;DHT22;6790;49.520;8.504;2024-02-14T13:17:17;12.20;99.90
13436;DHT22;6790;49.520;8.504;2024-02-14T13:19:43;12.30;99.90
13436;DHT22;6790;49.520;8.504;2024-02-14T13:22:09;12.50;99.90
13436;DHT22;6790;49.520;8.504;2024-02-14T13:24:35;12.50;99.90
13436;DHT22;6790;49.520;8.504;2024-02-14T13:27:01;12.50;99.90
13436;DHT22;6790;49.520;8.504;2024-02-14T13:29:26;12.30;99.90
13436;DHT22;6790;49.520;8.504;2024-02-14T13:31:53;12.30;99.90
13436;DHT22;6790;49.520;8.504;2024-02-14T13:34:19;12.30;99.90
13436;DHT22;6790;49.520;8.504;2024-02-14T13:36:46;12.30;99.90
13436;DHT22;6790;49.520;8.504;2024-02-14T13:39:12;12.40;99.90
13436;DHT22;6790;49.520;8.504;2024-02-14T13:41:39;12.40;99.90
13436;DHT22;6790;49.520;8.504;2024-02-14T13:44:09;12.40;99.90
13436;DHT22;6790;49.520;8.504;2024-02-14T13:46:38;12.40;99.90
13436;DHT22;6790;49.520;8.504;2024-02-14T13:49:09;12.40;99.90
13436;DHT22;6790;49.520;8.504;2024-02-14T13:51:36;12.30;99.90
13436;DHT22;6790;49.520;8.504;2024-02-14T13:54:02;12.30;99.90
13436;DHT22;6790;49.520;8.504;2024-02-14T13:56:27;12.40;99.90
13436;DHT22;6790;49.520;8.504;2024-02-14T13:58:53;12.40;99.90
13436;DHT22;6790;49.520;8.504;2024-02-14T14:01:19;12.40;99.90
13436;DHT22;6790;49.520;8.504;2024-02-14T14:03:45;12.40;99.90
13436;DHT22;6790;49.520;8.504;2024-02-14T14:06:12;12.40;99.90
13436;DHT22;6790;49.520;8.504;2024-02-14T14:08:39;12.40;99.90
13436;DHT22;6790;49.520;8.504;2024-02-14T14:11:05;12.50;99.90
13436;DHT22;6790;49.520;8.504;2024-02-14T14:13:31;12.50;99.90
13436;DHT22;6790;49.520;8.504;2024-02-14T14:15:59;12.40;99.90
13436;DHT22;6790;49.520;8.504;2024-02-14T14:18:25;12.40;99.90
13436;DHT22;6790;49.520;8.504;2024-02-14T14:20:51;12.40;99.90
13436;DHT22;6790;49.520;8.504;2024-02-14T14:23:18;12.30;99.90
13436;DHT22;6790;49.520;8.504;2024-02-14T14:25:44;12.40;99.90
13436;DHT22;6790;49.520;8.504;2024-02-14T14:28:09;12.50;99.90
13436;DHT22;6790;49.520;8.504;2024-02-14T14:30:35;12.40;99.90
13436;DHT22;6790;49.520;8.504;2024-02-14T14:33:02;12.30;99.90
13436;DHT22;6790;49.520;8.504;2024-02-14T14:35:29;12.30;99.90
13436;DHT22;6790;49.520;8.504;2024-02-14T14:38:04;12.20;99.90
13436;DHT22;6790;49.520;8.504;2024-02-14T14:40:30;12.20;99.90
13436;DHT22;6790;49.520;8.504;2024-02-14T14:42:56;12.20;99.90
13436;DHT22;6790;49.520;8.504;2024-02-14T14:45:22;12.10;99.90
13436;DHT22;6790;49.520;8.504;2024-02-14T14:47:47;12.10;99.90
13436;DHT22;6790;49.520;8.504;2024-02-14T14:50:14;12.00;99.90
13436;DHT22;6790;49.520;8.504;2024-02-14T14:52:43;12.00;99.90
13436;DHT22;6790;49.520;8.504;2024-02-14T14:55:09;12.00;99.90
13436;DHT22;6790;49.520;8.504;2024-02-14T14:57:35;12.00;99.90
13436;DHT22;6790;49.520;8.504;2024-02-14T15:00:10;12.00;99.90
13436;DHT22;6790;49.520;8.504;2024-02-14T15:02:40;12.00;99.90
13436;DHT22;6790;49.520;8.504;2024-02-14T15:05:09;11.90;99.90
13436;DHT22;6790;49.520;8.504;2024-02-14T15:07:35;11.90;99.90
13436;DHT22;6790;49.520;8.504;2024-02-14T15:10:01;11.90;99.90
13436;DHT22;6790;49.520;8.504;2024-02-14T15:12:27;11.90;99.90
13436;DHT22;6790;49.520;8.504;2024-02-14T15:14:53;11.80;99.90
13436;DHT22;6790;49.520;8.504;2024-02-14T15:17:19;11.90;99.90
13436;DHT22;6790;49.520;8.504;2024-02-14T15:19:46;11.90;99.90
13436;DHT22;6790;49.520;8.504;2024-02-14T15:22:11;11.80;99.90
13436;DHT22;6790;49.520;8.504;2024-02-14T15:24:38;11.80;99.90
13436;DHT22;6790;49.520;8.504;2024-02-14T15:27:06;11.70;99.90
13436;DHT22;6790;49.520;8.504;2024-02-14T15:29:32;11.60;99.90
13436;DHT22;6790;49.520;8.504;2024-02-14T15:32:16;11.60;99.90
13436;DHT22;6790;49.520;8.504;2024-02-14T15:35:01;11.60;99.90
13436;DHT22;6790;49.520;8.504;2024-02-14T15:37:29;11.60;99.90
13436;DHT22;6790;49.520;8.504;2024-02-14T15:39:55;11.60;99.90
13436;DHT22;6790;49.520;8.504;2024-02-14T15:42:21;11.70;99.90
13436;DHT22;6790;49.520;8.504;2024-02-14T15:44:46;11.70;99.90
13436;DHT22;6790;49.520;8.504;2024-02-14T15:47:12;11.60;99.90
13436;DHT22;6790;49.520;8.504;2024-02-14T15:49:41;11.70;99.90
13436;DHT22;6790;49.520;8.504;2024-02-14T15:52:06;11.60;99.90
13436;DHT22;6790;49.520;8.504;2024-02-14T15:54:33;11.60;99.90
13436;DHT22;6790;49.520;8.504;2024-02-14T15:56:59;11.60;99.90